ホバート の空港の天気 - METARとTAF

ホバート国際空港 ( YMHB / HBA ) - オーストラリア タスマニア州、Cambridge
飛行場実況気象(Metar)
観測時間08/13 07:00 AEST (08/12 21:00 UTC)
風向・風速北西 1m/s
視程10km以上
天気現象
全天の8割程度の雲 雲底高度 240m
気温7℃
湿度100%
気圧1018hPa
METARYMHB 122100Z 32001KT 9999 BKN008 07/07 Q1018
過去の天気等 Google飛行場航空写真 Wunderground天気予報

過去48時間のMETAR

飛行場予報(TAF)
発表時間: 8/13 06:06 AEST (8/12 20:06 UTC)
予報対象時間: 13日7時 AEST ~ 14日4時 AEST
風向・風速北西 4m/s
視程10km以上
全天の8割程度の雲 雲底高度 240m
全天の8割程度の雲 雲底高度 610m
13日10時 AEST ~ 13日11時 AEST に徐々に
風向・風速南南西 4m/s
視程10km以上
天気現象弱いしゅう雨
全天の4割程度の雲 雲底高度 460m
全天の8割程度の雲 雲底高度 760m
13日20時 AEST から
風向・風速南 5m/s
視程8000m
天気現象しゅう雨
全天の8割程度の雲 雲底高度 300m
全天の8割程度の雲 雲底高度 610m
13日20時 AEST ~ 14日4時 AEST に一時的に
視程4000m
天気現象強いしゅう雨
全天の8割程度の雲 雲底高度 150m
TAF AMD YMHB 122006Z 1221/1318 32007KT 9999 BKN008 BKN020
BECMG 1300/1301 20008KT 9999 -SHRA SCT015 BKN025
FM131000 17010KT 8000 SHRA BKN010 BKN020
TEMPO 1310/1318 4000 +SHRA BKN005